Time;durP1;ratioP1;P1;durP2;ratioP2;P2;SDS_P1;SDS_P2;PMS_P1;PMS_P2;Temp;Humidity;BMP_temperature;BMP_pressure;BME280_temperature;BME280_humidity;BME280_pressure;Samples;Min_cycle;Max_cycle;Signal;HPM_P1;HPM_P2
2022/05/30 00:02:03;;;;;;;12.45;2.50;;;12.50;76.60;;;;;;5049358;28;20017;-77
2022/05/30 00:04:29;;;;;;;11.55;2.50;;;12.40;76.80;;;;;;5048581;28;20411;-78
2022/05/30 00:06:54;;;;;;;8.95;2.55;;;12.40;76.90;;;;;;5049158;28;20065;-78
2022/05/30 00:09:20;;;;;;;8.98;2.42;;;12.40;77.20;;;;;;5052181;28;20120;-77
2022/05/30 00:11:48;;;;;;;8.00;2.25;;;12.30;77.10;;;;;;5048223;28;20470;-77
2022/05/30 00:14:13;;;;;;;8.30;2.28;;;12.30;77.30;;;;;;5048987;28;20033;-76
2022/05/30 00:16:46;;;;;;;11.00;2.40;;;12.30;77.50;;;;;;5048520;28;20024;-77
2022/05/30 00:19:12;;;;;;;11.30;2.55;;;12.30;77.70;;;;;;5049838;28;20038;-77
2022/05/30 00:21:38;;;;;;;8.95;2.60;;;12.20;77.70;;;;;;5054711;28;20033;-77
2022/05/30 00:24:04;;;;;;;10.23;2.47;;;12.10;78.10;;;;;;5049626;28;20063;-79
2022/05/30 00:26:29;;;;;;;8.52;2.65;;;12.10;78.40;;;;;;5048160;28;20017;-76
2022/05/30 00:28:55;;;;;;;11.02;3.08;;;12.00;78.60;;;;;;5048347;28;20028;-74
2022/05/30 00:31:21;;;;;;;11.48;3.08;;;12.00;78.50;;;;;;5048748;28;20590;-76
2022/05/30 00:33:48;;;;;;;11.23;2.95;;;12.00;78.70;;;;;;5048599;28;20064;-76
2022/05/30 00:36:14;;;;;;;9.45;2.95;;;11.90;78.80;;;;;;5048177;28;20041;-77
2022/05/30 00:38:39;;;;;;;9.07;3.15;;;11.90;79.00;;;;;;5047824;28;20029;-77
2022/05/30 00:41:06;;;;;;;12.48;2.70;;;11.90;79.00;;;;;;5048835;28;20017;-77
2022/05/30 00:43:37;;;;;;;14.52;3.38;;;11.90;79.30;;;;;;5047234;28;20128;-75
2022/05/30 00:46:12;;;;;;;13.00;2.95;;;11.90;79.30;;;;;;5048449;28;20147;-76
2022/05/30 00:48:42;;;;;;;14.50;3.78;;;11.80;79.20;;;;;;5048354;28;20028;-77
2022/05/30 00:51:13;;;;;;;12.50;2.67;;;11.80;79.10;;;;;;5046902;28;20059;-77
2022/05/30 00:53:40;;;;;;;9.30;2.78;;;11.80;79.20;;;;;;5036905;28;20070;-77
2022/05/30 00:56:14;;;;;;;5.18;2.25;;;11.80;79.10;;;;;;5044881;28;20507;-76
2022/05/30 00:58:50;;;;;;;8.10;2.22;;;11.80;79.30;;;;;;5048004;28;20056;-77
2022/05/30 01:01:18;;;;;;;12.48;2.50;;;11.80;79.20;;;;;;5048613;28;20017;-76
2022/05/30 01:06:41;;;;;;;13.02;2.80;;;11.80;79.20;;;;;;5049679;28;20067;-78
2022/05/30 01:09:11;;;;;;;9.32;3.20;;;11.80;79.10;;;;;;5050114;28;20036;-77
2022/05/30 01:11:46;;;;;;;7.23;2.10;;;11.80;78.90;;;;;;5047350;28;20029;-77
2022/05/30 01:14:12;;;;;;;8.98;3.15;;;11.80;78.80;;;;;;5048328;28;20025;-77
2022/05/30 01:16:37;;;;;;;14.63;2.75;;;11.80;78.60;;;;;;5049038;28;20426;-77
2022/05/30 01:19:05;;;;;;;9.70;2.75;;;11.80;78.50;;;;;;5053072;28;20033;-76
2022/05/30 01:22:05;;;;;;;10.57;3.28;;;11.80;78.30;;;;;;5049657;28;20123;-76
2022/05/30 01:24:54;;;;;;;13.75;3.88;;;11.80;78.30;;;;;;5047818;28;20028;-77
2022/05/30 01:27:58;;;;;;;9.35;2.45;;;11.80;78.40;;;;;;5047788;28;20053;-77
2022/05/30 01:30:24;;;;;;;9.95;2.47;;;11.70;78.50;;;;;;5041286;28;20025;-77
2022/05/30 01:32:49;;;;;;;9.50;2.58;;;11.70;79.30;;;;;;5048206;28;20037;-78
2022/05/30 01:35:25;;;;;;;11.13;3.20;;;11.60;78.80;;;;;;5048519;28;20480;-77
2022/05/30 01:37:51;;;;;;;12.35;2.60;;;11.60;79.00;;;;;;5047955;28;20017;-76
2022/05/30 01:40:18;;;;;;;10.00;3.30;;;11.60;78.80;;;;;;5047633;28;20503;-75
2022/05/30 01:42:44;;;;;;;8.52;2.47;;;11.60;78.80;;;;;;5047865;28;20501;-78
2022/05/30 01:45:10;;;;;;;7.22;2.50;;;11.60;78.80;;;;;;5047958;28;20029;-78
2022/05/30 01:47:37;;;;;;;8.35;2.75;;;11.50;78.90;;;;;;5047565;28;20104;-76
2022/05/30 01:50:04;;;;;;;13.85;3.92;;;11.50;78.90;;;;;;5046420;28;20126;-77
2022/05/30 01:52:30;;;;;;;15.90;3.03;;;11.50;79.00;;;;;;5047078;28;20017;-76
2022/05/30 01:54:57;;;;;;;10.38;2.97;;;11.40;79.00;;;;;;5047286;28;20094;-78
2022/05/30 01:57:23;;;;;;;9.25;2.55;;;11.40;79.00;;;;;;5045721;28;20025;-77
2022/05/30 01:59:49;;;;;;;11.00;3.35;;;11.40;79.20;;;;;;5047103;28;20021;-77
2022/05/30 02:02:14;;;;;;;6.82;2.45;;;11.30;79.10;;;;;;5048060;28;20391;-77
2022/05/30 02:04:40;;;;;;;10.82;3.13;;;11.30;79.20;;;;;;5047676;28;20021;-78
2022/05/30 02:07:06;;;;;;;8.25;2.95;;;11.30;79.40;;;;;;5050370;28;20029;-77
2022/05/30 02:09:31;;;;;;;8.55;3.00;;;11.30;79.40;;;;;;5047876;28;20174;-78
2022/05/30 02:11:57;;;;;;;7.13;3.35;;;11.20;79.40;;;;;;5050828;28;20029;-77
2022/05/30 02:14:24;;;;;;;14.07;4.35;;;11.20;79.60;;;;;;5049645;28;20403;-77
2022/05/30 02:17:04;;;;;;;14.38;3.72;;;11.20;79.60;;;;;;5054076;28;20025;-77
2022/05/30 02:19:32;;;;;;;10.43;3.05;;;11.20;79.80;;;;;;5051994;28;20021;-77
2022/05/30 02:21:59;;;;;;;9.48;3.83;;;11.10;79.90;;;;;;5050511;28;20108;-77
2022/05/30 02:24:25;;;;;;;10.43;3.47;;;11.10;80.10;;;;;;5051215;28;20425;-77
2022/05/30 02:26:52;;;;;;;9.93;3.70;;;11.00;80.10;;;;;;5050051;28;20036;-78
2022/05/30 02:29:18;;;;;;;8.27;3.03;;;11.00;80.10;;;;;;5050058;28;20017;-77
2022/05/30 02:31:44;;;;;;;12.75;3.60;;;11.00;80.10;;;;;;5050973;28;20017;-77
2022/05/30 02:36:55;;;;;;;11.13;3.60;;;10.90;80.20;;;;;;5031680;28;20052;-77
2022/05/30 02:39:24;;;;;;;19.13;4.90;;;11.00;80.70;;;;;;5035997;28;20036;-77
2022/05/30 02:41:50;;;;;;;9.73;3.58;;;10.90;81.00;;;;;;5050411;28;20070;-78
2022/05/30 02:44:18;;;;;;;10.88;4.47;;;10.90;81.50;;;;;;5051511;28;20117;-77
2022/05/30 02:46:46;;;;;;;13.75;4.88;;;10.80;82.20;;;;;;5051086;28;20108;-78
2022/05/30 02:49:11;;;;;;;15.20;4.57;;;10.80;82.10;;;;;;5051267;28;20082;-77
2022/05/30 02:51:37;;;;;;;14.55;4.57;;;10.80;82.30;;;;;;5051235;28;20063;-77
2022/05/30 02:54:03;;;;;;;9.75;3.85;;;10.80;82.30;;;;;;5050876;28;20032;-77
2022/05/30 02:56:28;;;;;;;11.10;3.97;;;10.80;82.20;;;;;;5049986;28;20033;-76
2022/05/30 02:58:56;;;;;;;8.65;3.58;;;10.80;82.20;;;;;;5050727;28;20035;-76
2022/05/30 03:01:22;;;;;;;15.50;4.43;;;10.80;82.20;;;;;;5050396;28;20021;-78
2022/05/30 03:03:47;;;;;;;9.75;3.45;;;10.80;82.20;;;;;;5051307;28;20581;-79
2022/05/30 03:06:13;;;;;;;11.52;4.25;;;10.70;82.20;;;;;;5051875;28;20023;-77
2022/05/30 03:08:39;;;;;;;9.18;4.20;;;10.70;82.20;;;;;;5053050;28;20487;-77
2022/05/30 03:11:05;;;;;;;15.48;4.47;;;10.70;82.20;;;;;;5049999;28;20025;-77
2022/05/30 03:13:30;;;;;;;11.68;3.67;;;10.70;82.20;;;;;;5049764;28;20478;-78
2022/05/30 03:15:58;;;;;;;9.60;4.80;;;10.70;82.00;;;;;;5053881;28;20512;-78
2022/05/30 03:18:24;;;;;;;11.85;4.32;;;10.70;82.00;;;;;;5049965;28;20021;-77
2022/05/30 03:20:49;;;;;;;13.40;4.63;;;10.70;82.10;;;;;;5048917;28;20090;-77
2022/05/30 03:23:15;;;;;;;10.68;3.85;;;10.70;82.00;;;;;;5050952;28;20013;-76
2022/05/30 03:25:40;;;;;;;10.30;3.53;;;10.70;82.30;;;;;;5052041;28;20025;-76
2022/05/30 03:28:06;;;;;;;14.00;4.20;;;10.70;81.70;;;;;;5052538;28;20037;-77
2022/05/30 03:30:37;;;;;;;9.05;3.50;;;10.70;81.60;;;;;;5051116;28;20083;-76
2022/05/30 03:33:04;;;;;;;11.48;4.28;;;10.70;81.60;;;;;;5049734;28;20063;-77
2022/05/30 03:35:30;;;;;;;10.95;4.30;;;10.70;81.60;;;;;;5050712;28;20048;-77
2022/05/30 03:37:55;;;;;;;13.75;4.13;;;10.70;81.70;;;;;;5049086;28;20033;-75
2022/05/30 03:40:21;;;;;;;10.60;3.78;;;10.70;81.80;;;;;;5049751;28;20031;-76
2022/05/30 03:42:47;;;;;;;11.68;3.92;;;10.70;82.00;;;;;;5050424;28;20025;-77
2022/05/30 03:45:13;;;;;;;12.07;4.15;;;10.70;82.40;;;;;;5049450;28;20021;-78
2022/05/30 03:47:43;;;;;;;15.02;4.43;;;10.70;82.80;;;;;;5049618;28;20110;-77
2022/05/30 03:50:14;;;;;;;10.70;4.35;;;10.70;82.80;;;;;;5051188;28;20024;-77
2022/05/30 03:52:40;;;;;;;13.93;3.88;;;10.80;82.80;;;;;;5049377;28;20024;-77
2022/05/30 03:55:11;;;;;;;13.27;3.40;;;10.80;82.60;;;;;;5049649;28;20379;-77
2022/05/30 03:57:39;;;;;;;14.32;3.95;;;10.80;82.70;;;;;;5048478;28;20124;-77
2022/05/30 04:00:12;;;;;;;10.20;3.78;;;10.90;83.00;;;;;;5049622;28;20108;-78
2022/05/30 04:02:38;;;;;;;9.80;3.45;;;10.90;82.90;;;;;;5048479;28;20028;-77
2022/05/30 04:05:04;;;;;;;12.43;3.55;;;11.00;82.70;;;;;;5049773;28;20029;-77
2022/05/30 04:07:30;;;;;;;8.90;3.83;;;11.00;82.40;;;;;;5051439;28;20413;-77
2022/05/30 04:09:56;;;;;;;11.52;2.97;;;11.10;82.20;;;;;;5050102;28;20171;-77
2022/05/30 04:12:25;;;;;;;10.60;3.33;;;11.10;82.30;;;;;;5050982;28;20087;-78
2022/05/30 04:14:59;;;;;;;10.07;3.00;;;11.10;81.80;;;;;;5053166;28;20266;-78
2022/05/30 04:17:25;;;;;;;11.73;3.30;;;11.10;81.80;;;;;;5048298;28;20021;-78
2022/05/30 04:19:51;;;;;;;12.52;3.53;;;11.10;81.60;;;;;;5049505;28;20140;-78
2022/05/30 04:22:17;;;;;;;8.93;2.83;;;11.10;81.70;;;;;;5050163;28;20139;-78
2022/05/30 04:24:43;;;;;;;14.27;4.25;;;11.10;81.80;;;;;;5048776;28;20104;-76
2022/05/30 04:27:08;;;;;;;7.85;3.15;;;11.10;81.80;;;;;;5048496;28;20013;-77
2022/05/30 04:29:34;;;;;;;8.32;3.08;;;11.10;81.70;;;;;;5049990;28;20108;-76
2022/05/30 04:32:01;;;;;;;6.00;2.60;;;11.20;81.40;;;;;;5048915;28;20025;-77
2022/05/30 04:34:27;;;;;;;7.28;3.25;;;11.30;81.30;;;;;;5049597;28;20060;-78
2022/05/30 04:36:53;;;;;;;8.63;3.47;;;11.30;81.20;;;;;;5049936;28;20048;-77
2022/05/30 04:39:18;;;;;;;9.57;4.25;;;11.30;81.20;;;;;;5050392;28;20025;-77
2022/05/30 04:41:44;;;;;;;10.77;3.03;;;11.30;81.30;;;;;;5049802;28;20033;-77
2022/05/30 04:44:09;;;;;;;8.90;3.17;;;11.40;81.30;;;;;;5050433;28;20104;-77
2022/05/30 04:46:35;;;;;;;6.50;3.05;;;11.40;81.10;;;;;;5049474;28;20075;-75
2022/05/30 04:49:01;;;;;;;5.97;3.20;;;11.40;81.00;;;;;;5050232;28;20157;-77
2022/05/30 04:51:27;;;;;;;9.43;2.80;;;11.40;81.20;;;;;;5050467;28;20027;-78
2022/05/30 04:53:53;;;;;;;6.25;2.70;;;11.40;81.40;;;;;;5049654;28;20078;-77
2022/05/30 04:56:19;;;;;;;10.60;2.90;;;11.40;81.30;;;;;;5050313;28;20040;-77
2022/05/30 04:58:49;;;;;;;8.23;3.47;;;11.40;80.90;;;;;;5049433;28;20025;-78
2022/05/30 05:01:15;;;;;;;7.57;3.17;;;11.40;81.10;;;;;;5049202;28;20032;-78
2022/05/30 05:03:42;;;;;;;10.32;3.80;;;11.40;81.20;;;;;;5050037;28;20017;-77
2022/05/30 05:06:15;;;;;;;8.00;2.72;;;11.40;81.20;;;;;;5053459;28;20021;-78
2022/05/30 05:09:19;;;;;;;14.50;3.97;;;11.50;80.90;;;;;;5053189;28;20025;-77
2022/05/30 05:11:46;;;;;;;8.10;3.88;;;11.50;80.60;;;;;;5050488;28;20029;-79
2022/05/30 05:14:16;;;;;;;9.50;3.17;;;11.60;80.40;;;;;;5056833;28;20021;-77
2022/05/30 05:16:42;;;;;;;8.43;2.40;;;11.70;80.30;;;;;;5048748;28;20495;-77
2022/05/30 05:19:11;;;;;;;11.40;2.72;;;11.70;79.90;;;;;;5046065;28;20479;-79
2022/05/30 05:21:39;;;;;;;8.35;2.53;;;11.80;79.70;;;;;;5048662;28;20032;-77
2022/05/30 05:24:06;;;;;;;8.00;2.78;;;11.90;79.60;;;;;;5048384;28;20021;-79
2022/05/30 05:26:33;;;;;;;10.25;2.78;;;11.90;79.60;;;;;;5048382;28;20028;-78
2022/05/30 05:28:58;;;;;;;8.73;2.30;;;12.00;79.10;;;;;;5051609;28;20024;-79
2022/05/30 05:31:32;;;;;;;11.13;2.70;;;12.10;78.30;;;;;;5048555;28;20033;-77
2022/05/30 05:33:57;;;;;;;9.50;2.63;;;12.10;78.30;;;;;;5048599;28;20053;-79
2022/05/30 05:36:28;;;;;;;8.07;2.38;;;12.30;78.30;;;;;;5048770;28;20116;-78
2022/05/30 05:38:54;;;;;;;8.75;2.70;;;12.40;78.00;;;;;;5049609;28;20048;-77
2022/05/30 05:41:23;;;;;;;8.82;2.70;;;12.40;77.30;;;;;;5050488;28;20581;-78
2022/05/30 05:43:53;;;;;;;6.95;2.50;;;12.50;76.90;;;;;;5052035;28;20071;-78
2022/05/30 05:46:20;;;;;;;9.23;2.60;;;12.50;76.30;;;;;;5056190;28;20505;-78
2022/05/30 05:48:45;;;;;;;7.32;2.75;;;12.50;76.00;;;;;;5054418;28;20074;-77
2022/05/30 05:51:13;;;;;;;8.05;2.60;;;12.50;75.70;;;;;;5053170;28;20013;-78
2022/05/30 05:53:41;;;;;;;9.27;2.58;;;12.50;76.10;;;;;;5042309;28;20025;-78
2022/05/30 05:56:18;;;;;;;7.57;2.88;;;12.50;76.30;;;;;;5053079;28;20025;-79
2022/05/30 05:58:44;;;;;;;6.15;2.80;;;12.60;76.20;;;;;;5053620;28;20116;-79
2022/05/30 06:01:15;;;;;;;6.68;2.40;;;12.70;76.20;;;;;;5046007;28;20018;-79
2022/05/30 06:03:41;;;;;;;6.53;2.35;;;12.70;75.30;;;;;;5049514;28;20029;-82
2022/05/30 06:06:14;;;;;;;6.55;1.52;;;12.80;74.00;;;;;;5064910;28;20017;-82
2022/05/30 06:08:40;;;;;;;9.15;2.15;;;12.80;73.50;;;;;;5064447;28;20017;-81
2022/05/30 06:11:08;;;;;;;6.13;1.88;;;12.80;73.00;;;;;;5062378;28;20168;-81
2022/05/30 06:13:39;;;;;;;9.73;1.92;;;12.80;72.30;;;;;;5061184;28;20017;-81
2022/05/30 06:16:06;;;;;;;5.70;1.77;;;12.80;71.10;;;;;;5050613;28;20029;-78
2022/05/30 06:18:32;;;;;;;6.00;1.50;;;12.80;71.10;;;;;;5045163;28;20036;-80
2022/05/30 06:20:58;;;;;;;3.67;1.20;;;12.90;71.30;;;;;;5059757;28;20017;-80
2022/05/30 06:23:26;;;;;;;4.53;1.55;;;13.10;69.00;;;;;;5051392;28;20075;-82
2022/05/30 06:25:54;;;;;;;4.30;1.25;;;13.20;68.30;;;;;;5062615;28;20061;-82
2022/05/30 06:28:20;;;;;;;5.53;1.20;;;13.30;68.00;;;;;;5064852;28;20027;-81
2022/05/30 06:30:46;;;;;;;5.20;1.38;;;13.40;68.10;;;;;;5057317;28;20028;-82
2022/05/30 06:33:12;;;;;;;5.32;0.93;;;13.50;66.20;;;;;;5053077;28;20048;-78
2022/05/30 06:35:41;;;;;;;3.88;0.73;;;13.50;65.00;;;;;;5052942;28;20041;-81
2022/05/30 06:38:09;;;;;;;2.55;0.80;;;13.50;63.60;;;;;;5051843;28;20029;-80
2022/05/30 06:40:35;;;;;;;4.78;1.15;;;13.50;64.80;;;;;;5052289;28;20055;-77
2022/05/30 06:43:00;;;;;;;6.40;1.17;;;13.70;65.40;;;;;;5051042;28;20067;-77
2022/05/30 06:45:27;;;;;;;4.70;1.10;;;13.70;65.70;;;;;;5047394;28;20022;-74
2022/05/30 06:47:53;;;;;;;3.97;1.27;;;13.80;65.50;;;;;;5049429;28;20033;-74
2022/05/30 06:50:18;;;;;;;6.57;1.10;;;13.90;64.80;;;;;;5049985;28;20080;-75
2022/05/30 06:52:44;;;;;;;4.60;1.10;;;14.00;65.20;;;;;;5050226;28;20896;-76
2022/05/30 06:55:10;;;;;;;6.10;1.17;;;14.10;64.80;;;;;;5049676;28;20434;-75
2022/05/30 07:00:22;;;;;;;3.95;0.95;;;14.00;63.40;;;;;;5046597;28;20044;-75
2022/05/30 07:02:48;;;;;;;4.97;1.20;;;14.10;64.50;;;;;;5050186;28;20104;-74
2022/05/30 07:05:14;;;;;;;5.57;1.70;;;14.20;64.10;;;;;;5049713;28;20166;-76
2022/05/30 07:07:41;;;;;;;8.38;1.30;;;14.20;63.40;;;;;;5050995;28;20135;-78
2022/05/30 07:10:08;;;;;;;6.35;1.38;;;14.20;63.00;;;;;;5048086;28;20033;-75
2022/05/30 07:12:52;;;;;;;5.00;1.15;;;14.10;63.20;;;;;;5044257;28;20051;-75
2022/05/30 07:15:18;;;;;;;6.38;1.27;;;14.00;63.10;;;;;;5040873;28;20045;-73
2022/05/30 07:17:44;;;;;;;4.50;1.10;;;14.00;63.60;;;;;;5039844;28;20018;-76
2022/05/30 07:20:11;;;;;;;8.63;1.15;;;14.10;63.70;;;;;;5041000;28;20033;-74
2022/05/30 07:22:37;;;;;;;4.60;1.30;;;14.20;64.20;;;;;;5037680;28;20032;-78
2022/05/30 07:25:06;;;;;;;5.10;1.00;;;14.30;63.90;;;;;;5039561;28;20025;-77
2022/05/30 07:27:31;;;;;;;6.43;1.38;;;14.40;64.00;;;;;;5041927;28;20025;-77
2022/05/30 07:30:02;;;;;;;8.23;1.65;;;14.40;62.50;;;;;;5043088;28;20058;-78
2022/05/30 07:32:29;;;;;;;5.82;1.30;;;14.40;63.10;;;;;;5044790;28;20077;-77
2022/05/30 07:34:57;;;;;;;6.50;1.23;;;14.30;63.90;;;;;;5039109;28;20108;-77
2022/05/30 07:37:27;;;;;;;8.80;1.55;;;14.20;64.10;;;;;;5037584;28;20116;-76
2022/05/30 07:39:55;;;;;;;8.68;2.17;;;14.20;64.10;;;;;;5041224;28;20028;-78
2022/05/30 07:42:30;;;;;;;9.60;1.45;;;14.10;64.40;;;;;;5036344;28;20115;-77
2022/05/30 07:44:56;;;;;;;5.45;1.55;;;14.00;64.60;;;;;;5038021;28;20064;-75
2022/05/30 07:47:22;;;;;;;7.90;1.10;;;14.00;64.90;;;;;;5037603;28;20099;-77
2022/05/30 07:49:49;;;;;;;5.70;1.17;;;14.10;65.40;;;;;;5038002;28;20387;-75
2022/05/30 07:52:15;;;;;;;5.90;1.42;;;14.10;65.20;;;;;;5034759;28;20033;-73
2022/05/30 07:54:41;;;;;;;5.50;1.10;;;14.00;64.90;;;;;;5038109;28;20093;-74
2022/05/30 07:57:07;;;;;;;5.68;1.45;;;14.10;65.00;;;;;;5034688;28;20029;-74
2022/05/30 07:59:37;;;;;;;7.70;1.80;;;14.10;64.00;;;;;;5035914;28;20036;-75
2022/05/30 08:02:05;;;;;;;4.82;1.15;;;14.20;63.00;;;;;;5036296;28;20021;-74
2022/05/30 08:04:33;;;;;;;6.47;1.25;;;14.20;63.50;;;;;;5036481;28;20016;-74
2022/05/30 08:06:59;;;;;;;4.15;0.95;;;14.30;64.00;;;;;;5041527;28;20028;-75
2022/05/30 08:09:24;;;;;;;5.47;0.95;;;14.30;62.00;;;;;;5038899;28;20656;-73
2022/05/30 08:11:50;;;;;;;2.53;0.70;;;14.50;62.50;;;;;;5042448;28;20033;-74
2022/05/30 08:14:16;;;;;;;5.93;0.90;;;14.50;60.20;;;;;;5039023;28;20167;-74
2022/05/30 08:16:41;;;;;;;7.32;1.08;;;14.60;60.80;;;;;;5038705;28;20228;-74
2022/05/30 08:19:08;;;;;;;2.15;0.70;;;14.70;59.80;;;;;;5038476;28;20052;-75
2022/05/30 08:21:36;;;;;;;5.05;1.00;;;14.80;61.80;;;;;;5037464;28;20036;-74
2022/05/30 08:24:04;;;;;;;4.65;1.15;;;14.90;60.80;;;;;;5038867;28;20041;-73
2022/05/30 08:26:30;;;;;;;5.53;0.80;;;15.00;60.40;;;;;;5038438;28;20120;-76
2022/05/30 08:28:56;;;;;;;4.63;1.00;;;15.00;60.80;;;;;;5035841;28;20109;-73
2022/05/30 08:31:21;;;;;;;7.13;1.40;;;15.10;61.20;;;;;;5040060;28;20100;-75
2022/05/30 08:33:47;;;;;;;8.10;1.40;;;15.20;61.20;;;;;;5039936;28;20465;-74
2022/05/30 08:36:13;;;;;;;6.63;1.00;;;15.20;61.50;;;;;;5037518;28;20067;-73
2022/05/30 08:38:40;;;;;;;3.85;0.88;;;15.40;62.10;;;;;;5039779;28;20049;-74
2022/05/30 08:43:58;;;;;;;5.95;1.20;;;15.50;60.80;;;;;;5039773;28;20067;-75
2022/05/30 08:46:47;;;;;;;4.45;1.00;;;15.60;59.20;;;;;;5059693;28;20029;-75
2022/05/30 08:49:30;;;;;;;3.55;0.93;;;15.70;58.70;;;;;;5041174;28;20491;-74
2022/05/30 08:52:05;;;;;;;3.60;0.70;;;15.70;59.20;;;;;;5041036;28;20625;-74
2022/05/30 08:55:00;;;;;;;3.58;0.85;;;15.80;59.30;;;;;;5036986;28;20117;-72
2022/05/30 08:57:45;;;;;;;4.68;1.45;;;15.80;58.50;;;;;;5034630;28;20036;-75
2022/05/30 09:00:41;;;;;;;6.25;0.90;;;16.00;58.30;;;;;;5037618;28;20043;-74
2022/05/30 09:03:16;;;;;;;6.85;1.30;;;16.10;58.30;;;;;;5033260;28;20033;-74
2022/05/30 09:05:56;;;;;;;5.07;0.73;;;16.10;57.40;;;;;;5036544;28;20044;-73
2022/05/30 09:08:46;;;;;;;3.55;0.85;;;16.10;57.40;;;;;;5037505;28;20026;-75
2022/05/30 09:11:40;;;;;;;5.72;1.27;;;16.10;56.70;;;;;;5036897;28;20715;-75
2022/05/30 09:14:14;;;;;;;6.97;1.10;;;16.00;57.00;;;;;;5035889;28;20025;-73
2022/05/30 09:16:46;;;;;;;4.05;1.00;;;16.00;56.50;;;;;;5037725;28;20106;-72
2022/05/30 09:19:13;;;;;;;3.78;0.90;;;15.90;54.90;;;;;;5034767;28;20037;-74
2022/05/30 09:21:40;;;;;;;2.75;0.93;;;15.80;55.40;;;;;;5039516;28;20045;-75
2022/05/30 09:24:06;;;;;;;4.07;1.00;;;15.70;55.70;;;;;;5037427;28;20017;-73
2022/05/30 09:26:40;;;;;;;5.85;0.90;;;15.60;55.60;;;;;;5036357;28;20076;-73
2022/05/30 09:29:33;;;;;;;5.45;1.23;;;15.70;56.20;;;;;;5037777;28;20031;-74
2022/05/30 09:32:38;;;;;;;5.47;1.00;;;16.00;56.40;;;;;;5037666;28;20450;-74
2022/05/30 09:35:26;;;;;;;4.45;1.10;;;16.50;56.90;;;;;;5038837;28;20025;-72
2022/05/30 09:38:16;;;;;;;3.75;0.95;;;17.10;56.00;;;;;;5037452;28;20029;-73
2022/05/30 09:40:52;;;;;;;;;;;17.60;54.00;;;;;;5034975;28;20044;-73
2022/05/30 09:43:27;;;;;;;2.15;0.70;;;17.80;54.40;;;;;;5040051;28;19916;-74
2022/05/30 09:45:54;;;;;;;3.83;1.23;;;17.70;55.30;;;;;;5033820;28;20029;-74
2022/05/30 09:48:21;;;;;;;1.90;0.85;;;17.90;54.00;;;;;;5034818;28;20100;-72
2022/05/30 09:50:56;;;;;;;6.28;1.50;;;18.10;54.30;;;;;;5036815;28;20029;-73
2022/05/30 09:53:43;;;;;;;3.78;0.90;;;18.30;51.60;;;;;;5034444;28;20033;-72
2022/05/30 09:56:16;;;;;;;3.15;0.60;;;18.30;48.60;;;;;;5033498;28;20086;-73
2022/05/30 09:58:42;;;;;;;8.00;0.90;;;18.50;52.60;;;;;;5038375;28;20058;-74
2022/05/30 10:01:08;;;;;;;10.38;1.15;;;18.60;50.50;;;;;;5037662;28;20567;-73
2022/05/30 10:03:36;;;;;;;7.03;1.10;;;18.70;50.70;;;;;;5035488;28;20211;-73
2022/05/30 10:06:17;;;;;;;10.82;1.42;;;18.70;49.80;;;;;;5036234;28;20025;-72
2022/05/30 10:08:44;;;;;;;4.30;1.33;;;18.60;48.70;;;;;;5040383;28;20025;-72
2022/05/30 10:11:24;;;;;;;3.17;1.05;;;18.40;50.40;;;;;;5038703;28;20021;-74
2022/05/30 10:13:51;;;;;;;;;;;18.20;50.70;;;;;;5038324;28;20029;-72
2022/05/30 10:16:34;;;;;;;6.07;0.85;;;17.80;51.30;;;;;;5039888;28;19959;-73
2022/05/30 10:19:09;;;;;;;4.50;1.40;;;17.50;51.40;;;;;;5037565;28;20052;-75
2022/05/30 10:28:15;;;;;;;5.05;1.55;;;16.60;53.10;;;;;;5037925;28;20697;-74
2022/05/30 10:31:25;;;;;;;5.55;1.80;;;16.40;53.80;;;;;;5039180;28;20040;-74
2022/05/30 10:34:28;;;;;;;4.00;1.20;;;16.20;55.10;;;;;;5037931;28;20090;-74
2022/05/30 10:36:57;;;;;;;5.53;1.52;;;16.00;55.00;;;;;;5038512;28;20045;-74
2022/05/30 10:39:44;;;;;;;5.38;1.38;;;16.00;55.40;;;;;;5038546;28;20025;-75
2022/05/30 10:42:21;;;;;;;7.15;1.50;;;15.90;55.70;;;;;;5036304;28;20063;-74
2022/05/30 10:44:51;;;;;;;3.28;1.10;;;16.00;56.00;;;;;;5038675;28;20028;-74
2022/05/30 10:47:38;;;;;;;4.63;1.30;;;15.90;56.50;;;;;;5034213;28;20025;-73
2022/05/30 10:50:12;;;;;;;6.93;1.45;;;15.90;56.20;;;;;;5035807;28;20047;-73
2022/05/30 10:52:48;;;;;;;4.22;1.15;;;15.80;55.90;;;;;;5037170;28;20017;-74
2022/05/30 10:55:30;;;;;;;6.45;1.25;;;15.80;55.20;;;;;;5032620;28;20518;-74
2022/05/30 10:58:07;;;;;;;3.05;1.23;;;15.80;55.80;;;;;;5038144;28;20578;-73
2022/05/30 11:00:48;;;;;;;6.13;1.63;;;15.80;55.40;;;;;;5038060;28;20018;-73
2022/05/30 11:03:21;;;;;;;;;;;15.80;54.90;;;;;;5038456;28;20075;-73
2022/05/30 11:06:03;;;;;;;9.15;1.38;;;15.80;54.80;;;;;;5037780;28;19921;-73
2022/05/30 11:08:38;;;;;;;4.55;1.40;;;15.90;54.80;;;;;;5041170;28;20025;-74
2022/05/30 11:11:19;;;;;;;4.43;1.45;;;15.90;53.90;;;;;;5035461;28;20087;-74
2022/05/30 11:13:50;;;;;;;3.95;1.35;;;15.90;54.40;;;;;;5038049;28;20091;-72
2022/05/30 11:16:25;;;;;;;3.80;1.05;;;15.80;54.30;;;;;;5033700;28;20116;-72
2022/05/30 11:19:11;;;;;;;5.85;1.10;;;15.90;54.90;;;;;;5033933;28;20036;-74
2022/05/30 11:21:52;;;;;;;6.95;1.45;;;16.00;54.80;;;;;;5030534;28;20131;-73
2022/05/30 11:24:18;;;;;;;5.85;1.42;;;16.10;54.30;;;;;;5035432;28;20021;-73
2022/05/30 11:27:03;;;;;;;5.32;1.30;;;16.10;53.60;;;;;;5036780;28;20184;-72
2022/05/30 11:29:32;;;;;;;4.03;1.10;;;16.20;52.80;;;;;;5034282;28;20036;-72
2022/05/30 11:32:07;;;;;;;5.75;1.42;;;16.30;52.80;;;;;;5033288;28;20025;-73
2022/05/30 11:35:05;;;;;;;4.13;1.10;;;16.30;53.40;;;;;;5034358;28;20067;-74
2022/05/30 11:37:51;;;;;;;2.90;0.80;;;16.40;53.40;;;;;;5037936;28;20128;-73
2022/05/30 11:40:49;;;;;;;5.03;1.25;;;16.50;53.20;;;;;;5035506;28;20173;-74
2022/05/30 11:43:58;;;;;;;6.22;1.38;;;16.50;52.40;;;;;;5034940;28;20036;-72
2022/05/30 11:46:41;;;;;;;5.57;1.02;;;16.50;53.00;;;;;;5034815;28;20386;-72
2022/05/30 11:49:29;;;;;;;7.15;1.90;;;16.60;52.90;;;;;;5036086;28;20059;-74
2022/05/30 11:52:35;;;;;;;3.90;1.27;;;16.70;53.10;;;;;;5036708;28;20082;-72
2022/05/30 11:55:11;;;;;;;5.72;1.30;;;16.70;52.50;;;;;;4972820;28;20046;-72
2022/05/30 11:57:47;;;;;;;5.32;1.27;;;16.70;52.30;;;;;;5029490;28;20041;-73
2022/05/30 12:00:25;;;;;;;4.60;1.58;;;16.70;52.70;;;;;;5036428;28;20487;-73
2022/05/30 12:03:18;;;;;;;3.35;0.88;;;16.90;53.30;;;;;;5034545;28;20108;-72
2022/05/30 12:06:21;;;;;;;4.45;1.20;;;17.00;54.20;;;;;;5038351;28;20033;-75
2022/05/30 12:09:14;;;;;;;7.20;1.70;;;17.10;52.60;;;;;;5036733;28;20082;-72
2022/05/30 12:11:52;;;;;;;4.68;1.42;;;17.10;52.20;;;;;;5032734;28;20454;-72
2022/05/30 12:14:24;;;;;;;3.35;1.10;;;17.10;52.10;;;;;;5033780;28;20024;-72
2022/05/30 12:16:55;;;;;;;5.68;1.10;;;17.20;51.70;;;;;;5035145;28;20041;-74
2022/05/30 12:23:48;;;;;;;4.00;1.58;;;17.40;52.00;;;;;;5039597;28;20186;-73
2022/05/30 12:25:36;;;;;;;2.97;0.82;;;17.50;51.70;;;;;;5032164;28;20075;-73
2022/05/30 12:28:28;;;;;;;2.38;0.93;;;17.60;55.10;;;;;;5033895;28;20479;-73
2022/05/30 12:31:05;;;;;;;9.82;1.80;;;17.70;54.00;;;;;;4999435;28;20041;-72
2022/05/30 12:33:31;;;;;;;4.32;1.20;;;17.90;54.00;;;;;;5033217;28;20057;-72
2022/05/30 12:36:08;;;;;;;5.38;1.60;;;17.90;52.00;;;;;;5035252;28;20098;-72
2022/05/30 12:38:53;;;;;;;1.95;0.75;;;18.10;50.70;;;;;;5029241;28;20396;-72
2022/05/30 12:41:21;;;;;;;5.05;1.33;;;18.20;52.90;;;;;;5033727;28;20883;-72
2022/05/30 12:43:47;;;;;;;8.75;1.83;;;18.30;52.20;;;;;;5034475;28;20041;-72
2022/05/30 12:46:16;;;;;;;3.88;1.15;;;18.20;50.00;;;;;;5031458;28;20095;-72
2022/05/30 12:49:00;;;;;;;5.53;1.10;;;18.20;51.90;;;;;;5033785;28;20075;-72
2022/05/30 12:51:32;;;;;;;3.33;0.80;;;18.30;51.10;;;;;;5033578;28;20036;-70
2022/05/30 12:53:58;;;;;;;5.43;1.48;;;18.40;54.10;;;;;;5030948;28;20029;-72
2022/05/30 12:56:39;;;;;;;3.58;1.33;;;18.50;53.20;;;;;;5033609;28;20044;-73
2022/05/30 12:59:16;;;;;;;3.55;1.30;;;18.60;55.20;;;;;;5035707;28;20109;-73
2022/05/30 13:01:44;;;;;;;6.47;1.20;;;18.90;55.00;;;;;;5035137;28;20136;-72
2022/05/30 13:04:16;;;;;;;2.60;1.20;;;19.10;51.90;;;;;;5036078;28;20113;-72
2022/05/30 13:07:01;;;;;;;3.75;1.10;;;19.50;52.40;;;;;;5035480;28;20039;-72
2022/05/30 13:09:36;;;;;;;2.15;1.00;;;20.00;50.70;;;;;;5034434;28;20030;-71
2022/05/30 13:12:10;;;;;;;2.35;0.70;;;20.50;50.60;;;;;;5035575;28;20017;-72
2022/05/30 13:15:06;;;;;;;4.47;0.85;;;21.10;51.70;;;;;;5034567;28;20038;-72
2022/05/30 13:17:56;;;;;;;3.28;0.75;;;21.60;51.70;;;;;;5033720;28;20033;-72
2022/05/30 13:20:45;;;;;;;5.38;1.83;;;22.00;46.50;;;;;;5037257;28;20021;-74
2022/05/30 13:23:11;;;;;;;6.03;1.55;;;22.10;41.90;;;;;;5039698;28;20029;-71
2022/05/30 13:25:43;;;;;;;3.80;0.90;;;21.90;42.40;;;;;;5040107;28;20028;-72
2022/05/30 13:28:14;;;;;;;9.07;1.83;;;21.80;43.40;;;;;;5033542;28;20021;-72
2022/05/30 13:30:40;;;;;;;13.88;1.75;;;21.80;42.10;;;;;;5032367;28;20025;-71